Time;durP1;ratioP1;P1;durP2;ratioP2;P2;SDS_P1;SDS_P2;PMS_P1;PMS_P2;Temp;Humidity;BMP_temperature;BMP_pressure;BME280_temperature;BME280_humidity;BME280_pressure;Samples;Min_cycle;Max_cycle;Signal;HPM_P1;HPM_P2
2022/05/29 00:00:48;;;;;;;0.25;0.25;;;11.50;99.90;;;;;;5006996;28;20026;-76
2022/05/29 00:03:14;;;;;;;0.43;0.43;;;11.50;99.90;;;;;;4995800;28;20031;-76
2022/05/29 00:05:41;;;;;;;0.30;0.30;;;11.40;99.90;;;;;;5000288;28;20057;-77
2022/05/29 00:08:09;;;;;;;1.25;0.40;;;11.40;99.90;;;;;;5012225;28;20038;-75
2022/05/29 00:10:37;;;;;;;2.55;0.95;;;11.40;99.90;;;;;;5007196;28;20033;-77
2022/05/29 00:13:04;;;;;;;0.38;0.30;;;11.30;99.90;;;;;;5010129;28;20033;-76
2022/05/29 00:15:29;;;;;;;1.45;0.90;;;11.30;99.90;;;;;;5014454;28;20109;-75
2022/05/29 00:17:54;;;;;;;0.30;0.30;;;11.30;99.90;;;;;;5013727;28;20108;-75
2022/05/29 00:20:20;;;;;;;1.45;1.05;;;11.20;99.90;;;;;;5008049;28;20412;-76
2022/05/29 00:22:46;;;;;;;0.22;0.22;;;11.10;99.90;;;;;;5010681;28;20056;-76
2022/05/29 00:25:12;;;;;;;0.82;0.82;;;11.10;99.90;;;;;;5013934;28;20029;-76
2022/05/29 00:27:38;;;;;;;7.30;0.82;;;11.10;99.90;;;;;;5013021;28;20029;-75
2022/05/29 00:30:06;;;;;;;0.85;0.55;;;11.00;99.90;;;;;;4997792;28;20115;-76
2022/05/29 00:32:33;;;;;;;0.28;0.20;;;11.10;99.90;;;;;;5001762;28;20092;-76
2022/05/29 00:34:58;;;;;;;0.30;0.30;;;11.10;99.90;;;;;;5010254;28;20030;-76
2022/05/29 00:37:23;;;;;;;0.50;0.40;;;11.00;99.90;;;;;;5005207;28;20750;-75
2022/05/29 00:39:50;;;;;;;0.52;0.30;;;10.90;99.90;;;;;;5008984;28;20025;-75
2022/05/29 00:42:20;;;;;;;0.40;0.15;;;10.90;99.90;;;;;;5011782;28;20041;-75
2022/05/29 00:44:45;;;;;;;2.53;0.63;;;10.90;99.90;;;;;;5008893;28;20400;-76
2022/05/29 00:47:18;;;;;;;1.05;0.70;;;10.90;99.90;;;;;;5011012;28;20022;-76
2022/05/29 00:49:45;;;;;;;4.40;0.43;;;11.00;99.90;;;;;;5002986;28;20033;-76
2022/05/29 00:52:23;;;;;;;0.10;0.10;;;10.90;99.90;;;;;;4999049;28;20045;-76
2022/05/29 00:54:58;;;;;;;0.47;0.47;;;11.00;99.90;;;;;;5009780;28;20041;-76
2022/05/29 00:57:31;;;;;;;0.45;0.32;;;11.00;99.90;;;;;;5024709;28;20411;-76
2022/05/29 01:00:02;;;;;;;0.50;0.50;;;11.10;99.90;;;;;;5014086;28;20068;-77
2022/05/29 01:02:28;;;;;;;0.35;0.35;;;11.10;99.90;;;;;;5012237;28;20038;-77
2022/05/29 01:04:53;;;;;;;0.30;0.30;;;11.10;99.90;;;;;;5014029;28;20030;-76
2022/05/29 01:07:21;;;;;;;0.82;0.80;;;11.10;99.90;;;;;;5014560;28;20053;-77
2022/05/29 01:09:49;;;;;;;10.65;1.38;;;11.10;99.90;;;;;;5014455;28;20033;-77
2022/05/29 01:12:39;;;;;;;0.75;0.75;;;11.10;99.90;;;;;;5018647;28;20092;-77
2022/05/29 01:15:25;;;;;;;0.13;0.13;;;11.10;99.90;;;;;;5015086;28;20026;-76
2022/05/29 01:18:14;;;;;;;0.50;0.22;;;11.10;99.90;;;;;;5015227;28;20030;-76
2022/05/29 01:21:06;;;;;;;0.30;0.30;;;11.10;99.90;;;;;;5017311;28;20013;-77
2022/05/29 01:24:04;;;;;;;0.30;0.30;;;11.00;99.90;;;;;;5026391;28;20044;-77
2022/05/29 01:26:58;;;;;;;8.35;0.85;;;11.10;99.90;;;;;;5022203;28;20061;-77
2022/05/29 01:29:51;;;;;;;0.70;0.35;;;11.20;99.90;;;;;;5029100;28;20055;-76
2022/05/29 01:32:21;;;;;;;0.45;0.45;;;11.10;99.90;;;;;;5018745;28;20032;-76
2022/05/29 01:34:54;;;;;;;1.30;1.20;;;11.10;99.90;;;;;;5010190;28;20033;-77
2022/05/29 01:37:45;;;;;;;0.30;0.30;;;11.10;99.90;;;;;;5015055;28;20030;-77
2022/05/29 01:40:19;;;;;;;0.25;0.25;;;11.00;99.90;;;;;;5018918;28;20025;-76
2022/05/29 01:42:54;;;;;;;0.85;0.73;;;11.00;99.90;;;;;;5023460;28;20104;-77
2022/05/29 01:45:53;;;;;;;0.20;0.20;;;10.90;99.90;;;;;;5020207;28;20108;-77
2022/05/29 01:48:35;;;;;;;0.05;0.05;;;10.90;99.90;;;;;;5011587;28;20037;-76
2022/05/29 01:51:20;;;;;;;0.28;0.17;;;11.00;99.90;;;;;;5015609;28;20391;-77
2022/05/29 01:53:57;;;;;;;0.95;0.40;;;11.00;99.90;;;;;;5019339;28;20030;-76
2022/05/29 01:56:33;;;;;;;0.85;0.75;;;11.00;99.90;;;;;;5015112;28;20042;-75
2022/05/29 01:59:06;;;;;;;1.38;0.50;;;11.00;99.90;;;;;;5017107;28;20072;-76
2022/05/29 02:01:37;;;;;;;0.50;0.30;;;11.00;99.90;;;;;;5019006;28;20086;-75
2022/05/29 02:04:07;;;;;;;0.15;0.15;;;11.00;99.90;;;;;;5010547;28;20055;-77
2022/05/29 02:09:27;;;;;;;0.43;0.43;;;10.90;99.90;;;;;;5030298;28;20036;-77
2022/05/29 02:11:55;;;;;;;0.73;0.55;;;10.90;99.90;;;;;;5026700;28;20113;-76
2022/05/29 02:14:29;;;;;;;0.88;0.65;;;10.90;99.90;;;;;;5016260;28;20060;-76
2022/05/29 02:16:59;;;;;;;0.45;0.45;;;10.90;99.90;;;;;;5021381;28;20045;-77
2022/05/29 02:19:30;;;;;;;0.63;0.33;;;10.90;99.90;;;;;;5020192;28;20033;-76
2022/05/29 02:22:12;;;;;;;1.13;0.60;;;11.00;99.90;;;;;;5010896;28;20034;-77
2022/05/29 02:24:43;;;;;;;0.30;0.30;;;11.00;99.90;;;;;;5018677;28;20037;-77
2022/05/29 02:27:25;;;;;;;0.25;0.25;;;11.00;99.90;;;;;;5010060;28;20033;-77
2022/05/29 02:29:52;;;;;;;0.98;0.40;;;11.10;99.90;;;;;;5015368;28;20030;-76
2022/05/29 02:32:36;;;;;;;6.63;0.63;;;11.10;99.90;;;;;;5014348;28;20039;-77
2022/05/29 02:35:18;;;;;;;1.65;0.40;;;11.10;99.90;;;;;;5027134;28;20028;-77
2022/05/29 02:38:14;;;;;;;0.65;0.55;;;11.20;99.90;;;;;;5024877;28;20022;-77
2022/05/29 02:41:02;;;;;;;0.85;0.30;;;11.20;99.90;;;;;;5013426;28;20109;-77
2022/05/29 02:43:43;;;;;;;0.20;0.20;;;11.20;99.90;;;;;;5025992;28;20033;-76
2022/05/29 02:46:29;;;;;;;0.13;0.13;;;11.20;99.90;;;;;;5010334;28;20081;-76
2022/05/29 02:49:01;;;;;;;2.13;0.60;;;11.20;99.90;;;;;;5028439;28;20073;-77
2022/05/29 02:51:34;;;;;;;5.65;0.82;;;11.20;99.90;;;;;;5022505;28;20034;-77
2022/05/29 02:53:59;;;;;;;4.28;0.52;;;11.20;99.90;;;;;;5011155;28;20061;-76
2022/05/29 02:56:26;;;;;;;5.60;0.77;;;11.10;99.90;;;;;;5019209;28;20037;-77
2022/05/29 02:58:54;;;;;;;0.50;0.30;;;11.00;99.90;;;;;;5019505;28;20119;-76
2022/05/29 03:01:44;;;;;;;0.52;0.52;;;11.00;99.90;;;;;;5010609;28;20037;-76
2022/05/29 03:04:36;;;;;;;2.53;0.28;;;11.00;99.90;;;;;;5018989;28;20037;-76
2022/05/29 03:07:18;;;;;;;0.40;0.40;;;11.00;99.90;;;;;;5022454;28;20030;-76
2022/05/29 03:09:54;;;;;;;0.20;0.20;;;11.10;99.90;;;;;;5009163;28;20037;-77
2022/05/29 03:12:23;;;;;;;0.30;0.30;;;11.10;99.90;;;;;;5011240;28;20089;-77
2022/05/29 03:15:19;;;;;;;0.32;0.32;;;11.10;99.90;;;;;;5010201;28;20034;-77
2022/05/29 03:17:53;;;;;;;0.90;0.90;;;11.00;99.90;;;;;;5026235;28;20033;-76
2022/05/29 03:20:48;;;;;;;0.17;0.10;;;11.00;99.90;;;;;;5026853;28;20033;-76
2022/05/29 03:23:26;;;;;;;0.35;0.35;;;11.10;99.90;;;;;;5024785;28;20029;-77
2022/05/29 03:26:01;;;;;;;1.23;1.00;;;11.10;99.90;;;;;;5015258;28;20037;-76
2022/05/29 03:28:47;;;;;;;0.85;0.45;;;11.20;99.90;;;;;;5026029;28;20076;-76
2022/05/29 03:31:18;;;;;;;0.65;0.25;;;11.20;99.90;;;;;;5012847;28;20025;-76
2022/05/29 03:33:46;;;;;;;0.50;0.40;;;11.20;99.90;;;;;;5024382;28;20084;-77
2022/05/29 03:36:15;;;;;;;0.65;0.40;;;11.30;99.90;;;;;;5012502;28;20113;-76
2022/05/29 03:38:41;;;;;;;0.63;0.63;;;11.30;99.90;;;;;;5010082;28;20038;-76
2022/05/29 03:41:37;;;;;;;0.25;0.25;;;11.20;99.90;;;;;;5009710;28;20026;-76
2022/05/29 03:44:02;;;;;;;1.25;0.57;;;11.20;99.90;;;;;;5012247;28;20485;-76
2022/05/29 03:46:28;;;;;;;0.20;0.20;;;11.20;99.90;;;;;;5019512;28;20037;-77
2022/05/29 03:48:53;;;;;;;0.20;0.20;;;11.10;99.90;;;;;;5015725;28;20053;-76
2022/05/29 03:51:19;;;;;;;1.17;0.60;;;11.00;99.90;;;;;;5012258;28;20032;-76
2022/05/29 03:53:44;;;;;;;0.60;0.60;;;11.00;99.90;;;;;;5013435;28;20108;-76
2022/05/29 03:56:10;;;;;;;2.63;0.75;;;11.00;99.90;;;;;;5020502;28;20044;-76
2022/05/29 03:58:35;;;;;;;0.22;0.22;;;11.00;99.90;;;;;;5014801;28;20122;-76
2022/05/29 04:01:02;;;;;;;0.82;0.82;;;11.10;99.90;;;;;;5020292;28;20509;-77
2022/05/29 04:03:27;;;;;;;0.40;0.40;;;11.20;99.90;;;;;;5022326;28;20026;-77
2022/05/29 04:05:54;;;;;;;0.30;0.30;;;11.10;99.90;;;;;;5010344;28;20096;-77
2022/05/29 04:13:49;;;;;;;0.38;0.13;;;11.20;99.90;;;;;;5009046;28;20044;-77
2022/05/29 04:16:15;;;;;;;0.45;0.45;;;11.30;99.90;;;;;;5025874;28;20029;-77
2022/05/29 04:18:42;;;;;;;1.55;0.90;;;11.30;99.90;;;;;;5017937;28;20024;-77
2022/05/29 04:21:08;;;;;;;0.98;0.35;;;11.30;99.90;;;;;;5014576;28;20712;-76
2022/05/29 04:23:34;;;;;;;0.32;0.32;;;11.30;99.90;;;;;;5016392;28;20522;-77
2022/05/29 04:26:00;;;;;;;0.57;0.32;;;11.40;99.90;;;;;;5011577;28;20033;-76
2022/05/29 04:28:26;;;;;;;0.85;0.47;;;11.50;99.90;;;;;;5021770;28;20042;-76
2022/05/29 04:30:51;;;;;;;3.33;0.38;;;11.60;99.90;;;;;;5014577;28;20037;-86
2022/05/29 04:33:17;;;;;;;4.80;0.57;;;11.70;99.90;;;;;;5019719;28;20084;-86
2022/05/29 04:35:48;;;;;;;2.95;1.10;;;11.60;99.90;;;;;;5026031;28;20034;-83
2022/05/29 04:38:13;;;;;;;0.20;0.20;;;11.50;99.90;;;;;;5024667;28;20033;-83
2022/05/29 04:40:41;;;;;;;0.40;0.40;;;11.40;99.90;;;;;;5023288;28;20017;-83
2022/05/29 04:43:11;;;;;;;0.60;0.60;;;11.40;99.90;;;;;;5025065;28;20029;-81
2022/05/29 04:45:43;;;;;;;1.50;0.32;;;11.50;99.90;;;;;;5023938;28;20034;-80
2022/05/29 04:48:09;;;;;;;0.40;0.40;;;11.70;99.90;;;;;;5019683;28;20064;-80
2022/05/29 04:50:38;;;;;;;1.13;0.95;;;11.70;99.90;;;;;;5012906;28;20026;-79
2022/05/29 04:53:05;;;;;;;3.03;0.50;;;11.70;99.90;;;;;;5019438;28;20111;-83
2022/05/29 04:55:31;;;;;;;0.60;0.60;;;11.60;99.90;;;;;;5017591;28;20435;-81
2022/05/29 04:57:56;;;;;;;0.45;0.43;;;11.70;99.90;;;;;;5018359;28;20051;-86
2022/05/29 05:00:22;;;;;;;0.50;0.50;;;11.80;99.90;;;;;;5020736;28;20049;-82
2022/05/29 05:02:48;;;;;;;0.80;0.60;;;11.70;99.90;;;;;;5016983;28;20044;-85
2022/05/29 05:05:13;;;;;;;0.93;0.70;;;11.80;99.90;;;;;;5030669;28;20034;-81
2022/05/29 05:07:39;;;;;;;1.13;0.95;;;11.80;99.90;;;;;;5008915;28;20504;-82
2022/05/29 05:10:11;;;;;;;1.63;0.95;;;11.90;99.90;;;;;;5021402;28;20090;-82
2022/05/29 05:12:40;;;;;;;0.30;0.30;;;12.00;99.90;;;;;;5030874;28;20041;-85
2022/05/29 05:15:07;;;;;;;1.38;1.27;;;12.20;99.90;;;;;;5027772;28;20460;-82
2022/05/29 05:17:33;;;;;;;1.27;0.57;;;12.10;99.90;;;;;;5025182;28;20161;-82
2022/05/29 05:19:58;;;;;;;0.40;0.30;;;11.90;99.90;;;;;;5027569;28;20104;-81
2022/05/29 05:22:24;;;;;;;0.32;0.30;;;11.90;99.90;;;;;;5021914;28;20039;-79
2022/05/29 05:24:49;;;;;;;2.28;0.98;;;11.90;99.90;;;;;;5012702;28;20045;-81
2022/05/29 05:27:15;;;;;;;0.70;0.38;;;12.00;99.90;;;;;;5013241;28;20395;-81
2022/05/29 05:29:41;;;;;;;0.50;0.50;;;12.00;99.90;;;;;;5012648;28;20022;-80
2022/05/29 05:32:07;;;;;;;0.35;0.32;;;12.00;99.90;;;;;;5018776;28;20029;-82
2022/05/29 05:34:32;;;;;;;0.40;0.40;;;12.00;99.90;;;;;;5014104;28;20229;-82
2022/05/29 05:36:58;;;;;;;0.70;0.52;;;11.90;99.90;;;;;;5019321;28;20028;-82
2022/05/29 05:39:24;;;;;;;0.57;0.52;;;11.80;99.90;;;;;;5011666;28;20041;-81
2022/05/29 05:41:50;;;;;;;0.80;0.60;;;11.80;99.90;;;;;;5016507;28;20024;-79
2022/05/29 05:44:16;;;;;;;1.00;0.50;;;11.90;99.90;;;;;;5019334;28;20475;-80
2022/05/29 05:46:49;;;;;;;0.35;0.35;;;11.90;99.90;;;;;;5022096;28;20108;-80
2022/05/29 05:49:19;;;;;;;4.85;2.38;;;11.90;99.90;;;;;;5013061;28;20033;-81
2022/05/29 05:51:45;;;;;;;0.43;0.30;;;12.10;99.90;;;;;;5010662;28;20065;-79
2022/05/29 05:54:12;;;;;;;1.20;0.75;;;12.30;99.90;;;;;;5028218;28;20049;-80
2022/05/29 05:56:41;;;;;;;0.63;0.60;;;12.40;99.90;;;;;;5018230;28;20475;-79
2022/05/29 05:59:07;;;;;;;4.00;0.60;;;12.30;99.90;;;;;;5009807;28;20029;-79
2022/05/29 06:01:32;;;;;;;4.25;1.13;;;12.10;99.90;;;;;;5014588;28;20030;-79
2022/05/29 06:03:58;;;;;;;0.70;0.55;;;12.00;99.90;;;;;;5020050;28;20022;-79
2022/05/29 06:06:23;;;;;;;1.27;0.73;;;12.00;99.90;;;;;;5010024;28;20387;-79
2022/05/29 06:08:49;;;;;;;0.50;0.40;;;12.10;99.90;;;;;;5019804;28;20068;-81
2022/05/29 06:11:14;;;;;;;0.77;0.60;;;12.20;99.90;;;;;;5022901;28;20125;-78
2022/05/29 06:13:40;;;;;;;3.08;0.57;;;12.40;99.90;;;;;;5023710;28;20124;-80
2022/05/29 06:16:05;;;;;;;2.28;0.63;;;12.50;99.90;;;;;;5021028;28;20100;-80
2022/05/29 06:18:31;;;;;;;0.95;0.50;;;12.60;99.90;;;;;;5018381;28;20503;-80
2022/05/29 06:21:00;;;;;;;1.33;0.70;;;12.70;99.90;;;;;;5019464;28;20022;-81
2022/05/29 06:23:26;;;;;;;2.42;0.80;;;12.80;99.90;;;;;;5018916;28;20033;-80
2022/05/29 06:25:51;;;;;;;0.60;0.60;;;12.90;99.90;;;;;;5019534;28;20041;-79
2022/05/29 06:28:17;;;;;;;0.63;0.40;;;13.00;99.90;;;;;;5011964;28;20080;-78
2022/05/29 06:30:44;;;;;;;1.38;0.57;;;13.20;99.90;;;;;;5009457;28;20030;-81
2022/05/29 06:33:10;;;;;;;0.38;0.38;;;13.30;99.90;;;;;;5011915;28;20033;-80
2022/05/29 06:35:36;;;;;;;1.42;0.50;;;13.30;99.90;;;;;;5025796;28;20030;-81
2022/05/29 06:38:01;;;;;;;0.38;0.38;;;13.20;99.90;;;;;;5024184;28;20030;-79
2022/05/29 06:40:27;;;;;;;0.82;0.82;;;13.10;99.90;;;;;;5021172;28;20473;-81
2022/05/29 06:42:52;;;;;;;1.38;0.28;;;13.00;99.90;;;;;;5011241;28;20067;-79
2022/05/29 06:45:18;;;;;;;0.73;0.70;;;13.10;99.90;;;;;;5015733;28;20251;-88
2022/05/29 06:47:44;;;;;;;0.70;0.70;;;13.30;99.90;;;;;;5012807;28;20037;-81
2022/05/29 06:50:10;;;;;;;0.98;0.65;;;13.40;99.90;;;;;;5013846;28;20175;-83
2022/05/29 06:52:36;;;;;;;0.75;0.75;;;13.50;99.80;;;;;;5020920;28;20029;-81
2022/05/29 06:55:02;;;;;;;0.30;0.30;;;13.50;99.60;;;;;;5031311;28;20050;-84
2022/05/29 06:57:37;;;;;;;3.03;1.45;;;13.30;99.90;;;;;;5031978;28;20070;-81
2022/05/29 07:08:30;;;;;;;0.77;0.40;;;13.50;99.90;;;;;;5029544;28;20067;-82
2022/05/29 07:11:05;;;;;;;7.22;0.85;;;13.60;97.90;;;;;;5032625;28;20029;-80
2022/05/29 07:13:32;;;;;;;1.08;0.82;;;13.40;97.80;;;;;;5028709;28;20039;-82
2022/05/29 07:15:58;;;;;;;0.60;0.50;;;13.60;99.10;;;;;;5033789;28;20025;-79
2022/05/29 07:18:23;;;;;;;1.35;0.93;;;13.60;97.30;;;;;;5028356;28;20164;-82
2022/05/29 07:20:49;;;;;;;0.57;0.57;;;13.60;97.40;;;;;;5030058;28;20112;-83
2022/05/29 07:23:14;;;;;;;0.38;0.38;;;13.50;98.40;;;;;;5034391;28;20021;-81
2022/05/29 07:25:40;;;;;;;0.82;0.75;;;13.50;97.60;;;;;;5028952;28;20143;-81
2022/05/29 07:28:06;;;;;;;0.70;0.63;;;13.60;96.90;;;;;;5032535;28;20025;-81
2022/05/29 07:30:34;;;;;;;0.55;0.52;;;13.60;96.10;;;;;;5034362;28;20041;-84
2022/05/29 07:33:00;;;;;;;0.32;0.32;;;13.80;95.90;;;;;;5029916;28;20112;-83
2022/05/29 07:35:26;;;;;;;0.60;0.55;;;13.90;94.70;;;;;;5037748;28;20021;-82
2022/05/29 07:37:52;;;;;;;8.02;0.68;;;14.30;95.00;;;;;;5034918;28;20056;-82
2022/05/29 07:40:20;;;;;;;0.30;0.30;;;14.50;93.60;;;;;;5031745;28;20196;-82
2022/05/29 07:45:30;;;;;;;0.70;0.60;;;14.50;92.90;;;;;;5034276;28;20119;-83
2022/05/29 07:48:00;;;;;;;1.08;0.70;;;14.20;91.30;;;;;;5030401;28;20053;-83
2022/05/29 07:50:26;;;;;;;0.28;0.28;;;14.10;92.40;;;;;;5022519;28;20046;-82
2022/05/29 07:52:52;;;;;;;0.20;0.20;;;14.30;92.30;;;;;;5033847;28;20048;-84
2022/05/29 07:55:18;;;;;;;1.75;1.05;;;14.40;91.30;;;;;;5025439;28;20437;-83
2022/05/29 07:57:44;;;;;;;0.35;0.35;;;14.10;91.00;;;;;;5034607;28;20036;-83
2022/05/29 08:00:12;;;;;;;2.17;0.40;;;14.00;90.90;;;;;;5029101;28;20034;-84
2022/05/29 08:02:38;;;;;;;2.00;0.60;;;14.10;91.50;;;;;;5030038;28;20021;-81
2022/05/29 08:05:04;;;;;;;3.45;0.60;;;14.30;91.60;;;;;;5036686;28;20532;-83
2022/05/29 08:07:30;;;;;;;0.77;0.77;;;14.30;91.30;;;;;;5034816;28;20041;-85
2022/05/29 08:09:56;;;;;;;0.40;0.40;;;14.20;92.30;;;;;;5035325;28;20916;-86
2022/05/29 08:12:21;;;;;;;7.88;1.40;;;14.20;91.40;;;;;;5037585;28;20072;-84
2022/05/29 08:14:47;;;;;;;0.70;0.47;;;14.30;91.30;;;;;;5035527;28;20053;-85
2022/05/29 08:17:13;;;;;;;0.90;0.55;;;14.60;93.20;;;;;;5042027;28;20036;-86
2022/05/29 08:19:39;;;;;;;2.05;0.70;;;14.90;91.60;;;;;;5032560;28;20017;-87
2022/05/29 08:22:05;;;;;;;0.35;0.35;;;15.00;91.90;;;;;;5031870;28;20222;-86
2022/05/29 08:33:00;;;;;;;3.30;0.35;;;14.80;89.00;;;;;;5017568;28;20083;-79
2022/05/29 08:35:26;;;;;;;0.65;0.65;;;15.00;89.10;;;;;;5014817;28;20022;-80
2022/05/29 08:37:53;;;;;;;0.60;0.50;;;15.20;88.10;;;;;;5014961;28;20045;-81
2022/05/29 08:40:19;;;;;;;1.08;0.90;;;15.30;87.70;;;;;;5008394;28;20085;-80
2022/05/29 08:42:44;;;;;;;1.20;0.95;;;15.30;88.60;;;;;;5012548;28;20030;-78
2022/05/29 08:45:14;;;;;;;0.40;0.40;;;15.40;88.90;;;;;;5014191;28;20033;-77
2022/05/29 08:47:45;;;;;;;1.73;1.08;;;15.60;89.10;;;;;;5015159;28;20056;-78
2022/05/29 08:50:18;;;;;;;0.43;0.43;;;15.90;85.00;;;;;;5023793;28;20056;-77
2022/05/29 08:52:49;;;;;;;0.20;0.20;;;15.50;81.30;;;;;;5012140;28;20647;-79
2022/05/29 08:55:38;;;;;;;;;;;15.70;85.10;;;;;;5012645;28;20046;-78
2022/05/29 08:58:27;;;;;;;1.30;0.75;;;15.60;84.90;;;;;;5003290;28;20361;-78
2022/05/29 09:01:23;;;;;;;0.15;0.15;;;15.10;90.20;;;;;;5014747;28;20049;-76
2022/05/29 09:04:12;;;;;;;0.63;0.50;;;15.00;89.80;;;;;;5010371;28;20484;-78
2022/05/29 09:06:52;;;;;;;0.82;0.70;;;15.00;90.30;;;;;;5008334;28;20045;-77
2022/05/29 09:09:31;;;;;;;2.15;0.70;;;15.10;89.30;;;;;;5006948;28;20068;-78
2022/05/29 09:12:01;;;;;;;0.80;0.80;;;14.90;91.90;;;;;;5013841;28;20575;-79
2022/05/29 09:14:45;;;;;;;0.40;0.25;;;14.70;95.40;;;;;;5013395;28;20033;-79
2022/05/29 09:17:20;;;;;;;0.95;0.77;;;14.90;99.70;;;;;;5017215;28;20469;-79
2022/05/29 09:19:58;;;;;;;5.82;0.55;;;14.60;96.50;;;;;;5012864;28;20022;-79
2022/05/29 09:22:31;;;;;;;0.60;0.50;;;14.30;94.40;;;;;;5008234;28;20052;-80
2022/05/29 09:25:03;;;;;;;0.47;0.47;;;14.80;97.30;;;;;;5015908;28;20088;-80
2022/05/29 09:27:30;;;;;;;0.40;0.38;;;15.10;93.30;;;;;;5009487;28;20026;-77
2022/05/29 09:29:55;;;;;;;0.90;0.20;;;15.10;94.80;;;;;;5014359;28;20026;-78
2022/05/29 09:32:25;;;;;;;0.68;0.47;;;14.70;95.70;;;;;;5008339;28;20168;-79
2022/05/29 09:34:56;;;;;;;0.40;0.40;;;14.80;93.90;;;;;;5014056;28;20079;-81
2022/05/29 09:37:37;;;;;;;1.40;0.60;;;15.20;94.80;;;;;;5016495;28;20022;-80
2022/05/29 09:40:07;;;;;;;0.43;0.40;;;15.60;95.20;;;;;;5008399;28;20496;-86
2022/05/29 09:42:42;;;;;;;0.28;0.28;;;15.70;92.30;;;;;;5009352;28;20026;-80
2022/05/29 09:45:32;;;;;;;0.60;0.55;;;15.20;91.70;;;;;;5008925;28;20124;-79
2022/05/29 09:50:50;;;;;;;0.35;0.35;;;15.00;93.40;;;;;;5008779;28;20061;-78
2022/05/29 09:53:29;;;;;;;1.35;0.55;;;14.40;95.40;;;;;;5007583;28;20025;-79
2022/05/29 09:56:04;;;;;;;0.38;0.38;;;14.20;96.90;;;;;;5006421;28;20038;-80
2022/05/29 09:58:37;;;;;;;0.20;0.20;;;14.10;98.90;;;;;;5009892;28;20030;-87
2022/05/29 10:01:05;;;;;;;1.23;0.25;;;14.20;99.30;;;;;;5019148;28;20052;-85
2022/05/29 10:03:50;;;;;;;0.40;0.40;;;14.10;99.40;;;;;;5014447;28;20464;-85
2022/05/29 10:06:29;;;;;;;0.20;0.20;;;14.30;99.80;;;;;;5011666;28;20033;-82
2022/05/29 10:09:08;;;;;;;3.35;1.27;;;14.40;99.90;;;;;;5017009;28;20046;-83
2022/05/29 10:11:34;;;;;;;0.10;0.10;;;14.30;99.80;;;;;;5014709;28;20381;-84
2022/05/29 10:14:21;;;;;;;0.82;0.32;;;14.30;99.20;;;;;;5010199;28;20073;-81
2022/05/29 10:16:49;;;;;;;4.55;1.25;;;14.30;99.90;;;;;;5014059;28;20030;-84
2022/05/29 10:19:48;;;;;;;0.43;0.40;;;14.40;99.90;;;;;;5023432;28;20021;-80
2022/05/29 10:22:20;;;;;;;0.35;0.17;;;14.50;99.90;;;;;;5020691;28;20026;-87
2022/05/29 10:24:45;;;;;;;0.98;0.38;;;14.80;99.90;;;;;;5011548;28;20088;-85
2022/05/29 10:27:35;;;;;;;0.20;0.17;;;15.10;99.90;;;;;;5018725;28;20029;-82
2022/05/29 10:30:07;;;;;;;0.68;0.60;;;15.40;93.90;;;;;;5012369;28;20472;-84
2022/05/29 10:32:36;;;;;;;0.50;0.30;;;15.50;91.50;;;;;;5016407;28;20558;-86
2022/05/29 10:35:27;;;;;;;0.32;0.28;;;15.70;90.50;;;;;;5013067;28;20044;-84
2022/05/29 10:37:56;;;;;;;0.22;0.20;;;16.00;86.60;;;;;;5014127;28;20480;-84
2022/05/29 10:40:31;;;;;;;0.20;0.10;;;16.40;83.00;;;;;;5016290;28;20026;-81
2022/05/29 10:43:03;;;;;;;0.25;0.25;;;16.70;74.70;;;;;;5017856;28;20053;-81
2022/05/29 10:45:34;;;;;;;0.30;0.30;;;16.70;77.10;;;;;;5018748;28;20083;-83
2022/05/29 10:48:03;;;;;;;0.30;0.30;;;16.60;74.20;;;;;;5023414;28;20475;-85
2022/05/29 10:50:48;;;;;;;0.17;0.13;;;16.80;77.80;;;;;;5025753;28;20619;-84
2022/05/29 10:53:25;;;;;;;0.40;0.40;;;17.20;73.20;;;;;;5030743;28;20043;-81
2022/05/29 10:56:02;;;;;;;0.10;0.10;;;17.80;73.60;;;;;;5034570;28;20382;-83
2022/05/29 10:58:59;;;;;;;2.30;0.35;;;17.70;67.60;;;;;;5029604;28;20087;-79
2022/05/29 11:05:11;;;;;;;1.85;0.93;;;18.70;63.60;;;;;;5025425;28;20883;-81
2022/05/29 11:08:08;;;;;;;0.10;0.10;;;18.80;67.80;;;;;;5030362;28;20030;-79
2022/05/29 11:10:51;;;;;;;0.30;0.30;;;18.40;71.10;;;;;;5034502;28;20025;-80
2022/05/29 11:13:54;;;;;;;0.22;0.22;;;18.10;68.00;;;;;;5031852;28;20553;-82
2022/05/29 11:16:37;;;;;;;0.80;0.43;;;17.70;66.40;;;;;;5024367;28;20032;-82
2022/05/29 11:19:38;;;;;;;1.55;0.52;;;17.50;67.60;;;;;;5031652;28;20245;-82
2022/05/29 11:22:35;;;;;;;1.30;0.70;;;17.10;69.70;;;;;;4942200;28;20098;-84
2022/05/29 11:25:25;;;;;;;0.30;0.30;;;17.10;69.70;;;;;;5014296;28;20436;-87
2022/05/29 11:28:14;;;;;;;3.65;0.47;;;16.40;72.90;;;;;;5010844;28;20527;-82
2022/05/29 11:31:12;;;;;;;0.20;0.20;;;15.60;77.30;;;;;;5009527;28;20060;-77
2022/05/29 11:33:58;;;;;;;0.30;0.30;;;15.10;82.60;;;;;;5019113;28;20551;-81
2022/05/29 11:37:01;;;;;;;0.30;0.30;;;14.70;85.40;;;;;;5009569;28;20029;-80
2022/05/29 11:40:14;;;;;;;0.30;0.30;;;14.50;90.20;;;;;;5019158;28;20537;-78
2022/05/29 11:43:04;;;;;;;0.38;0.38;;;14.20;95.60;;;;;;4959190;28;20042;-76
2022/05/29 11:51:27;;;;;;;0.45;0.28;;;14.30;99.90;;;;;;5028483;28;20100;-78
2022/05/29 11:54:15;;;;;;;0.40;0.40;;;14.70;99.90;;;;;;5029235;28;20480;-80
2022/05/29 11:56:49;;;;;;;0.55;0.55;;;14.90;98.00;;;;;;5029100;28;20041;-79
2022/05/29 11:59:33;;;;;;;0.38;0.38;;;15.00;99.30;;;;;;5037095;28;20040;-78
2022/05/29 12:02:10;;;;;;;0.80;0.80;;;15.30;97.40;;;;;;5029737;28;20033;-79
2022/05/29 12:04:43;;;;;;;0.20;0.20;;;15.50;96.50;;;;;;5021075;28;20037;-78
2022/05/29 12:07:18;;;;;;;0.35;0.35;;;15.90;92.90;;;;;;5029147;28;20034;-81
2022/05/29 12:09:55;;;;;;;0.70;0.70;;;16.40;92.10;;;;;;5035992;28;20034;-81
2022/05/29 12:12:27;;;;;;;0.40;0.40;;;16.90;86.20;;;;;;5033281;28;20100;-77
2022/05/29 12:14:58;;;;;;;1.88;1.00;;;17.00;80.90;;;;;;5027166;28;20035;-80
2022/05/29 12:17:31;;;;;;;0.90;0.65;;;17.40;78.90;;;;;;5026764;28;20029;-80
2022/05/29 12:20:06;;;;;;;0.38;0.38;;;17.80;73.60;;;;;;5032257;28;20030;-78
2022/05/29 12:22:57;;;;;;;0.40;0.40;;;18.20;71.30;;;;;;5029575;28;20026;-80
2022/05/29 12:25:39;;;;;;;0.25;0.25;;;19.30;71.10;;;;;;5025589;28;20476;-77
2022/05/29 12:28:09;;;;;;;0.32;0.32;;;20.60;62.90;;;;;;5024948;28;20082;-79
2022/05/29 12:30:43;;;;;;;1.90;0.83;;;20.00;61.40;;;;;;5027562;28;20487;-82
2022/05/29 12:33:13;;;;;;;2.97;0.52;;;20.10;61.50;;;;;;5026162;28;20028;-80
2022/05/29 12:35:50;;;;;;;0.57;0.45;;;21.70;58.30;;;;;;5033636;28;20037;-78
2022/05/29 12:38:21;;;;;;;2.22;1.00;;;21.80;57.30;;;;;;5028097;28;20047;-79
2022/05/29 12:40:52;;;;;;;0.75;0.60;;;21.10;60.90;;;;;;5030063;28;20045;-79
2022/05/29 12:44:03;;;;;;;0.80;0.68;;;20.70;59.40;;;;;;5021094;28;20034;-77
2022/05/29 12:46:42;;;;;;;0.77;0.50;;;19.60;58.80;;;;;;5026958;28;20117;-79
2022/05/29 12:49:28;;;;;;;0.28;0.28;;;18.80;63.80;;;;;;5034045;28;20116;-79
2022/05/29 12:52:12;;;;;;;0.10;0.10;;;19.50;62.20;;;;;;5020015;28;20384;-81
2022/05/29 12:54:56;;;;;;;0.30;0.30;;;20.10;58.70;;;;;;5014051;28;20033;-81
2022/05/29 12:57:40;;;;;;;0.45;0.38;;;19.60;59.20;;;;;;5017838;28;20029;-79
2022/05/29 13:00:20;;;;;;;0.20;0.20;;;18.90;60.50;;;;;;5018219;28;20022;-77
2022/05/29 13:02:57;;;;;;;0.60;0.60;;;18.20;64.00;;;;;;5017194;28;20052;-81
2022/05/29 13:05:32;;;;;;;0.38;0.38;;;17.80;71.40;;;;;;5026009;28;20048;-80
2022/05/29 13:08:23;;;;;;;0.30;0.30;;;17.40;75.50;;;;;;5019511;28;20034;-80
2022/05/29 13:10:52;;;;;;;0.32;0.30;;;16.80;79.10;;;;;;5013045;28;20029;-80
2022/05/29 13:13:35;;;;;;;0.38;0.32;;;16.50;82.30;;;;;;5013925;28;20088;-79
2022/05/29 13:16:40;;;;;;;15.07;8.25;;;16.20;81.40;;;;;;5009130;28;20056;-78
2022/05/29 13:19:14;;;;;;;1.85;0.52;;;16.10;79.80;;;;;;5010715;28;20534;-76
2022/05/29 13:22:01;;;;;;;0.73;0.30;;;15.90;80.50;;;;;;5015771;28;20037;-80
2022/05/29 13:24:33;;;;;;;6.05;3.33;;;15.70;84.90;;;;;;5015200;28;20415;-76
2022/05/29 13:27:29;;;;;;;0.28;0.28;;;15.60;86.10;;;;;;5013768;28;20049;-80
2022/05/29 13:29:58;;;;;;;25.38;11.57;;;15.50;87.70;;;;;;5016628;28;20541;-83
2022/05/29 13:32:26;;;;;;;70.13;28.60;;;16.00;90.20;;;;;;5014544;28;20038;-85
2022/05/29 13:35:12;;;;;;;6.43;3.33;;;16.50;90.40;;;;;;5021976;28;20032;-76
2022/05/29 13:37:43;;;;;;;12.18;7.63;;;16.50;86.00;;;;;;5009712;28;20103;-82
2022/05/29 13:40:20;;;;;;;42.10;20.17;;;16.70;88.60;;;;;;5014174;28;20464;-80
2022/05/29 13:43:28;;;;;;;13.38;6.13;;;16.80;88.80;;;;;;5021325;28;20035;-79
2022/05/29 13:46:04;;;;;;;2.88;1.88;;;17.00;83.80;;;;;;4986731;28;20034;-79
2022/05/29 13:48:31;;;;;;;3.88;1.50;;;17.00;81.50;;;;;;5018076;28;20109;-77
2022/05/29 13:51:26;;;;;;;1.65;1.38;;;17.20;79.70;;;;;;5015944;28;20029;-77
2022/05/29 13:54:01;;;;;;;5.28;2.80;;;17.30;78.30;;;;;;5019510;28;20030;-77
2022/05/29 13:57:00;;;;;;;0.57;0.50;;;17.30;77.80;;;;;;5015037;28;20042;-76
2022/05/29 14:05:41;;;;;;;0.30;0.20;;;22.30;61.80;;;;;;5024636;28;20805;-78
2022/05/29 14:08:18;;;;;;;0.88;0.55;;;26.30;49.50;;;;;;5013505;28;20029;-77